Time;durP1;ratioP1;P1;durP2;ratioP2;P2;SDS_P1;SDS_P2;PMS_P1;PMS_P2;Temp;Humidity;BMP_temperature;BMP_pressure;BME280_temperature;BME280_humidity;BME280_pressure;Samples;Min_cycle;Max_cycle;Signal;HPM_P1;HPM_P2
2022/05/26 00:01:07;;;;;;;12.20;3.47;;;;;;;14.84;77.38;101779.13;5013243;28;99365;-33
2022/05/26 00:03:33;;;;;;;7.22;2.90;;;;;;;14.87;77.23;101786.25;5013363;28;96486;-33
2022/05/26 00:06:00;;;;;;;13.13;3.22;;;;;;;14.84;77.17;101781.84;4995678;28;96694;-33
2022/05/26 00:08:26;;;;;;;9.38;3.05;;;;;;;14.80;77.92;101779.44;4995211;28;101337;-33
2022/05/26 00:10:52;;;;;;;18.75;3.88;;;;;;;14.78;78.25;101779.53;5013634;28;97751;-33
2022/05/26 00:13:17;;;;;;;10.02;3.30;;;;;;;14.70;79.00;101776.41;4995372;28;96786;-34
2022/05/26 00:15:42;;;;;;;11.40;4.20;;;;;;;14.72;78.05;101782.66;5012475;28;121619;-33
2022/05/26 00:18:07;;;;;;;9.10;2.85;;;;;;;14.70;78.05;101779.16;5011741;28;125922;-33
2022/05/26 00:20:33;;;;;;;14.05;3.08;;;;;;;14.72;78.10;101779.94;5012824;28;114893;-33
2022/05/26 00:22:58;;;;;;;6.13;2.55;;;;;;;14.65;78.22;101765.81;5013358;28;96588;-33
2022/05/26 00:25:23;;;;;;;11.63;2.58;;;;;;;14.62;78.60;101773.31;5011963;28;123147;-33
2022/05/26 00:27:49;;;;;;;8.98;2.92;;;;;;;14.68;78.32;101786.53;5012979;28;99758;-33
2022/05/26 00:30:15;;;;;;;11.80;3.47;;;;;;;14.60;78.10;101773.41;5011938;28;127230;-33
2022/05/26 00:32:40;;;;;;;7.90;3.05;;;;;;;14.60;78.89;101778.00;5012748;28;96477;-33
2022/05/26 00:35:06;;;;;;;8.95;2.80;;;;;;;14.59;78.52;101782.56;5013492;28;101548;-33
2022/05/26 00:37:32;;;;;;;12.40;3.83;;;;;;;14.57;78.75;101775.47;4994695;28;101200;-33
2022/05/26 00:39:57;;;;;;;6.47;2.55;;;;;;;14.63;79.40;101785.97;5011796;28;128605;-33
2022/05/26 00:42:22;;;;;;;18.52;3.45;;;;;;;14.64;78.88;101802.25;5012414;28;96527;-33
2022/05/26 00:44:47;;;;;;;11.57;2.70;;;;;;;14.63;79.00;101794.16;5012839;28;96865;-33
2022/05/26 00:47:17;;;;;;;14.32;3.00;;;;;;;14.58;78.08;101785.38;5011837;28;125392;-33
2022/05/26 00:49:55;;;;;;;5.20;2.22;;;;;;;14.66;78.31;101793.97;4994803;28;101128;-33
2022/05/26 00:52:27;;;;;;;12.82;2.95;;;;;;;14.62;78.49;101790.53;4994944;28;96606;-33
2022/05/26 00:54:54;;;;;;;8.25;2.15;;;;;;;14.66;78.34;101796.69;4994846;28;96713;-34
2022/05/26 00:57:33;;;;;;;11.55;2.83;;;;;;;14.56;78.27;101795.50;4994512;28;100992;-33
2022/05/26 01:00:04;;;;;;;5.55;1.85;;;;;;;14.62;78.30;101804.19;4995140;28;100783;-33
2022/05/26 01:02:36;;;;;;;12.53;1.93;;;;;;;14.62;78.25;101806.91;4978352;28;96586;-33
2022/05/26 01:05:12;;;;;;;7.28;1.90;;;;;;;14.67;77.95;101809.34;4994446;28;96955;-33
2022/05/26 01:07:39;;;;;;;13.80;2.20;;;;;;;14.69;78.04;101814.72;5011602;28;99356;-33
2022/05/26 01:10:07;;;;;;;11.98;1.80;;;;;;;14.72;78.39;101818.09;4994465;28;100747;-33
2022/05/26 01:12:32;;;;;;;6.68;1.75;;;;;;;14.76;78.13;101816.09;5012260;28;96767;-33
2022/05/26 01:15:03;;;;;;;4.70;1.60;;;;;;;14.75;78.25;101822.50;5013056;28;96804;-33
2022/05/26 01:18:05;;;;;;;6.78;1.40;;;;;;;14.75;78.42;101814.31;4994320;28;102121;-33
2022/05/26 01:20:49;;;;;;;18.50;2.20;;;;;;;14.76;78.13;101822.41;5012465;28;97327;-33
2022/05/26 01:23:40;;;;;;;10.73;2.20;;;;;;;14.78;78.10;101830.50;5012476;28;96611;-33
2022/05/26 01:26:42;;;;;;;9.33;1.87;;;;;;;14.78;78.14;101820.47;4994460;28;96793;-34
2022/05/26 01:29:18;;;;;;;4.53;1.50;;;;;;;14.81;78.29;101824.84;5012367;28;97362;-33
2022/05/26 01:32:29;;;;;;;8.52;1.48;;;;;;;14.81;78.17;101824.84;4994155;28;100671;-33
2022/05/26 01:35:27;;;;;;;7.65;1.75;;;;;;;14.79;78.29;101818.59;5012088;28;96606;-33
2022/05/26 01:38:19;;;;;;;7.03;1.58;;;;;;;14.79;77.63;101813.16;5012514;28;96620;-33
2022/05/26 01:40:58;;;;;;;6.15;1.65;;;;;;;14.82;77.88;101826.56;5012072;28;97304;-33
2022/05/26 01:43:32;;;;;;;7.88;1.33;;;;;;;14.86;77.30;101839.94;4992888;28;101377;-33
2022/05/26 01:46:00;;;;;;;12.65;2.10;;;;;;;14.84;76.91;101828.22;5012435;28;96496;-33
2022/05/26 01:48:42;;;;;;;8.35;1.55;;;;;;;14.80;76.95;101833.97;5012022;28;96782;-33
2022/05/26 01:51:11;;;;;;;11.43;2.07;;;;;;;14.81;77.11;101833.88;4993826;28;101027;-33
2022/05/26 01:54:07;;;;;;;6.22;1.30;;;;;;;14.85;76.96;101843.66;4994086;28;100850;-33
2022/05/26 01:56:38;;;;;;;6.78;1.58;;;;;;;14.84;77.04;101844.59;4993907;28;96749;-33
2022/05/26 01:59:10;;;;;;;5.93;1.90;;;;;;;14.85;76.75;101843.66;5012207;28;97542;-33
2022/05/26 02:01:40;;;;;;;9.15;1.55;;;;;;;14.84;76.83;101841.88;4993293;28;100809;-33
2022/05/26 02:04:17;;;;;;;11.52;2.38;;;;;;;14.89;76.77;101851.63;4993145;28;101769;-33
2022/05/26 02:06:53;;;;;;;6.18;1.48;;;;;;;14.83;76.91;101840.13;5012101;28;96741;-33
2022/05/26 02:09:27;;;;;;;4.68;1.65;;;;;;;14.85;76.70;101846.38;4993846;28;96732;-33
2022/05/26 02:12:06;;;;;;;8.05;1.20;;;;;;;14.90;77.11;101850.63;4993451;28;101161;-33
2022/05/26 02:14:36;;;;;;;10.35;1.48;;;;;;;14.84;76.70;101850.06;5011654;28;99829;-33
2022/05/26 02:17:06;;;;;;;9.73;2.05;;;;;;;14.86;76.81;101855.41;4993630;28;96585;-33
2022/05/26 02:19:36;;;;;;;12.02;2.22;;;;;;;14.85;76.66;101860.00;5011721;28;110904;-33
2022/05/26 02:22:26;;;;;;;14.60;2.17;;;;;;;14.92;76.52;101865.06;5011517;28;100128;-33
2022/05/26 02:25:03;;;;;;;7.10;1.80;;;;;;;14.92;76.42;101868.69;4993636;28;101562;-33
2022/05/26 02:27:30;;;;;;;11.07;2.35;;;;;;;14.91;76.16;101864.19;4992983;28;96869;-33
2022/05/26 02:29:59;;;;;;;14.20;2.03;;;;;;;14.87;76.31;101868.06;4993475;28;96838;-33
2022/05/26 02:32:38;;;;;;;8.32;2.05;;;;;;;14.85;76.40;101868.19;5011395;28;97975;-33
2022/05/26 02:35:12;;;;;;;4.65;2.13;;;;;;;14.82;76.55;101873.81;4993252;28;101160;-33
2022/05/26 02:37:39;;;;;;;6.47;1.60;;;;;;;14.80;76.29;101870.34;4993538;28;96612;-33
2022/05/26 02:40:07;;;;;;;9.32;1.95;;;;;;;14.82;76.52;101876.53;4993390;28;96860;-33
2022/05/26 02:42:33;;;;;;;13.63;2.20;;;;;;;14.82;76.37;101879.28;4993187;28;102446;-33
2022/05/26 02:44:59;;;;;;;7.35;1.65;;;;;;;14.82;76.38;101883.88;5011371;28;98871;-33
2022/05/26 02:47:48;;;;;;;11.05;2.15;;;;;;;14.78;76.51;101885.06;4993313;28;96795;-33
2022/05/26 02:50:36;;;;;;;8.65;1.70;;;;;;;14.82;76.49;101895.63;4993338;28;96748;-33
2022/05/26 02:53:27;;;;;;;12.98;2.42;;;;;;;14.78;76.34;101888.66;5010175;28;119748;-33
2022/05/26 02:56:07;;;;;;;14.02;2.40;;;;;;;14.84;76.17;101896.44;4995896;28;101157;-33
2022/05/26 02:58:37;;;;;;;4.65;1.58;;;;;;;14.79;76.18;101889.53;4996590;28;96668;-33
2022/05/26 03:01:06;;;;;;;4.97;1.73;;;;;;;14.85;75.79;101898.19;4996396;28;99751;-33
2022/05/26 03:03:36;;;;;;;3.30;1.23;;;;;;;14.86;75.73;101901.81;5013911;28;99608;-33
2022/05/26 03:06:14;;;;;;;9.82;1.30;;;;;;;14.80;75.71;101900.34;5014783;28;97394;-33
2022/05/26 03:08:42;;;;;;;4.03;1.20;;;;;;;14.86;75.81;101896.34;4996655;28;96609;-33
2022/05/26 03:11:16;;;;;;;8.43;1.48;;;;;;;14.79;76.00;101889.53;4996468;28;96930;-33
2022/05/26 03:13:41;;;;;;;6.25;2.13;;;;;;;14.77;75.27;101892.34;4996438;28;100594;-33
2022/05/26 03:16:07;;;;;;;8.43;1.25;;;;;;;14.75;75.67;101893.41;5013379;28;126376;-33
2022/05/26 03:18:32;;;;;;;2.70;1.27;;;;;;;14.78;75.76;101901.41;5014141;28;96736;-33
2022/05/26 03:21:03;;;;;;;6.97;1.65;;;;;;;14.76;75.70;101906.97;5014147;28;96829;-33
2022/05/26 03:23:29;;;;;;;4.90;1.65;;;;;;;14.74;75.38;101908.91;4996218;28;100988;-33
2022/05/26 03:25:56;;;;;;;8.40;1.50;;;;;;;14.78;75.45;101913.19;5013520;28;108772;-33
2022/05/26 03:28:22;;;;;;;11.20;1.70;;;;;;;14.76;75.53;101911.53;4996096;28;96686;-33
2022/05/26 03:30:48;;;;;;;2.22;1.00;;;;;;;14.77;75.25;101907.81;4996251;28;96809;-33
2022/05/26 03:33:13;;;;;;;5.00;1.17;;;;;;;14.78;75.29;101910.47;5013831;28;97892;-33
2022/05/26 03:41:07;;;;;;;5.40;1.40;;;;;;;14.70;75.40;101910.06;5014440;28;96632;-33
2022/05/26 03:43:46;;;;;;;4.78;1.15;;;;;;;14.73;75.23;101919.88;5013580;28;98003;-33
2022/05/26 03:46:12;;;;;;;6.55;1.52;;;;;;;14.65;75.30;101912.19;4995840;28;101470;-33
2022/05/26 03:48:40;;;;;;;10.52;1.60;;;;;;;14.68;75.30;101922.91;4995706;28;96541;-33
2022/05/26 03:51:06;;;;;;;10.57;1.45;;;;;;;14.70;75.18;101914.63;4995750;28;96928;-33
2022/05/26 03:53:33;;;;;;;5.85;1.75;;;;;;;14.62;74.99;101910.53;5013880;28;97980;-33
2022/05/26 03:55:59;;;;;;;10.95;1.73;;;;;;;14.57;75.30;101915.41;4995537;28;101043;-33
2022/05/26 03:58:24;;;;;;;7.22;1.48;;;;;;;14.64;75.24;101922.22;5013774;28;96597;-33
2022/05/26 04:00:50;;;;;;;5.53;1.45;;;;;;;14.63;75.26;101925.03;5014291;28;96803;-33
2022/05/26 04:03:15;;;;;;;8.23;1.48;;;;;;;14.62;74.82;101931.47;5013241;28;97864;-33
2022/05/26 04:05:41;;;;;;;7.20;1.65;;;;;;;14.55;75.41;101925.50;5012683;28;98281;-33
2022/05/26 04:08:07;;;;;;;7.95;1.73;;;;;;;14.54;75.20;101931.06;5012824;28;96550;-33
2022/05/26 04:10:32;;;;;;;5.25;1.30;;;;;;;14.53;75.26;101940.19;5013348;28;96811;-33
2022/05/26 04:12:57;;;;;;;4.20;1.40;;;;;;;14.51;75.15;101940.25;5012332;28;124499;-33
2022/05/26 04:15:23;;;;;;;3.70;1.30;;;;;;;14.45;75.16;101938.78;5013524;28;97836;-33
2022/05/26 04:17:48;;;;;;;3.63;1.30;;;;;;;14.47;75.38;101948.72;5013245;28;96486;-33
2022/05/26 04:20:19;;;;;;;9.30;1.50;;;;;;;14.47;75.28;101946.00;5013763;28;96720;-33
2022/05/26 04:22:45;;;;;;;4.65;1.63;;;;;;;14.53;75.58;101964.72;4995218;28;101052;-33
2022/05/26 04:25:10;;;;;;;3.58;1.50;;;;;;;14.49;75.42;101963.13;5013574;28;97768;-33
2022/05/26 04:27:36;;;;;;;3.85;1.33;;;;;;;14.51;75.15;101963.94;4995106;28;97096;-33
2022/05/26 04:30:05;;;;;;;8.20;1.33;;;;;;;14.51;75.06;101970.25;5013331;28;96800;-33
2022/05/26 04:32:31;;;;;;;12.35;1.63;;;;;;;14.52;75.56;101971.16;5012591;28;97994;-33
2022/05/26 04:34:56;;;;;;;6.55;1.25;;;;;;;14.52;75.24;101976.59;4994878;28;100904;-33
2022/05/26 04:37:23;;;;;;;5.15;1.35;;;;;;;14.55;75.25;101977.31;5012209;28;121848;-33
2022/05/26 04:39:50;;;;;;;5.75;1.38;;;;;;;14.61;75.29;101990.59;4995110;28;96961;-33
2022/05/26 04:42:16;;;;;;;2.85;1.30;;;;;;;14.57;75.15;101979.97;4994604;28;101067;-33
2022/05/26 04:44:43;;;;;;;9.98;2.13;;;;;;;14.62;75.37;101986.00;4994721;28;100629;-33
2022/05/26 04:47:10;;;;;;;7.63;1.33;;;;;;;14.68;75.32;101998.38;4994968;28;96469;-33
2022/05/26 04:49:37;;;;;;;2.33;1.02;;;;;;;14.69;75.17;101986.53;5012041;28;96874;-33
2022/05/26 04:52:06;;;;;;;6.03;1.17;;;;;;;14.69;74.90;101983.81;5012668;28;97795;-33
2022/05/26 04:54:32;;;;;;;11.25;1.58;;;;;;;14.73;75.17;101985.34;4994547;28;102192;-33
2022/05/26 04:56:58;;;;;;;5.35;1.40;;;;;;;14.79;75.03;101993.16;5012147;28;96530;-33
2022/05/26 04:59:24;;;;;;;7.80;1.67;;;;;;;14.77;74.89;101993.25;4994774;28;97026;-33
2022/05/26 05:01:50;;;;;;;5.28;1.83;;;;;;;14.83;74.66;102005.66;4994633;28;101346;-33
2022/05/26 05:04:15;;;;;;;7.82;1.50;;;;;;;14.82;74.82;102012.94;5012425;28;97261;-33
2022/05/26 05:06:40;;;;;;;3.42;1.35;;;;;;;14.79;74.63;102001.34;5012921;28;96525;-33
2022/05/26 05:09:06;;;;;;;7.35;1.60;;;;;;;14.80;74.87;102001.28;5011793;28;116869;-33
2022/05/26 05:11:31;;;;;;;4.80;1.70;;;;;;;14.85;74.97;102006.44;5012395;28;97823;-33
2022/05/26 05:14:01;;;;;;;9.77;1.63;;;;;;;14.85;74.57;102014.63;4994822;28;101184;-33
2022/05/26 05:16:31;;;;;;;3.10;1.50;;;;;;;14.90;74.74;102017.97;4994481;28;96660;-33
2022/05/26 05:18:57;;;;;;;2.25;0.95;;;;;;;14.90;74.73;102017.97;5012096;28;96851;-33
2022/05/26 05:21:48;;;;;;;10.60;2.13;;;;;;;14.97;74.48;102015.69;4993696;28;100962;-33
2022/05/26 05:24:31;;;;;;;11.18;2.25;;;;;;;15.00;74.54;102012.81;5012462;28;97836;-33
2022/05/26 05:27:11;;;;;;;7.32;1.95;;;;;;;15.09;74.09;102014.97;4993958;28;96665;-33
2022/05/26 05:29:40;;;;;;;11.18;2.25;;;;;;;15.13;74.22;102021.97;4994682;28;96510;-33
2022/05/26 05:32:17;;;;;;;2.13;1.10;;;;;;;15.22;74.22;102028.72;4994028;28;101342;-33
2022/05/26 05:34:53;;;;;;;5.53;2.03;;;;;;;15.27;73.91;102030.19;5012479;28;97813;-33
2022/05/26 05:37:19;;;;;;;6.18;1.77;;;;;;;15.32;73.80;102042.69;4994299;28;96819;-33
2022/05/26 05:39:44;;;;;;;5.38;1.75;;;;;;;15.35;73.60;102027.00;5012735;28;96550;-33
2022/05/26 05:42:10;;;;;;;8.50;2.17;;;;;;;15.44;73.71;102036.44;5012282;28;98019;-33
2022/05/26 05:44:36;;;;;;;8.95;1.45;;;;;;;15.46;73.12;102035.38;5011675;28;99354;-33
2022/05/26 05:47:02;;;;;;;6.13;1.60;;;;;;;15.56;73.23;102045.72;5011842;28;96644;-33
2022/05/26 05:49:32;;;;;;;8.20;1.98;;;;;;;15.68;73.20;102047.66;5012160;28;96788;-33
2022/05/26 05:52:10;;;;;;;4.93;1.50;;;;;;;15.73;72.82;102044.66;4993768;28;100953;-33
2022/05/26 05:54:36;;;;;;;5.07;1.35;;;;;;;15.82;72.68;102053.16;4993817;28;99092;-33
2022/05/26 05:57:02;;;;;;;11.52;1.58;;;;;;;15.83;72.23;102046.72;5011873;28;96617;-33
2022/05/26 05:59:27;;;;;;;8.18;1.52;;;;;;;15.87;72.28;102040.09;4994039;28;96914;-33
2022/05/26 06:01:54;;;;;;;5.15;1.70;;;;;;;15.96;72.10;102048.66;5011638;28;99837;-33
2022/05/26 06:04:19;;;;;;;6.10;1.75;;;;;;;16.10;72.18;102056.84;5012020;28;97937;-33
2022/05/26 06:06:44;;;;;;;12.07;1.90;;;;;;;16.14;71.81;102058.41;5012370;28;96601;-33
2022/05/26 06:09:20;;;;;;;5.15;1.75;;;;;;;16.16;71.94;102055.53;5011697;28;102740;-33
2022/05/26 06:11:45;;;;;;;10.40;1.77;;;;;;;16.29;71.15;102062.84;5011194;28;98535;-33
2022/05/26 06:14:11;;;;;;;4.25;1.23;;;;;;;16.39;71.17;102056.75;5011547;28;99056;-33
2022/05/26 06:16:36;;;;;;;12.48;2.13;;;;;;;16.40;70.93;102053.03;5011958;28;96570;-33
2022/05/26 06:19:02;;;;;;;8.13;1.98;;;;;;;16.45;70.82;102061.84;5011595;28;96918;-33
2022/05/26 06:21:27;;;;;;;5.45;1.70;;;;;;;16.54;70.92;102056.63;5011492;28;99302;-33
2022/05/26 06:23:56;;;;;;;5.60;2.00;;;;;;;16.70;70.66;102066.50;4992693;28;122418;-33
2022/05/26 06:26:26;;;;;;;4.32;1.90;;;;;;;16.80;70.23;102075.00;4992985;28;96947;-33
2022/05/26 06:31:37;;;;;;;9.70;2.38;;;;;;;17.04;69.76;102075.16;5014832;28;99172;-33
2022/05/26 06:39:31;;;;;;;5.75;1.95;;;;;;;17.17;69.64;102076.09;5015308;28;96489;-33
2022/05/26 06:42:06;;;;;;;7.63;2.30;;;;;;;17.29;68.82;102080.69;5014549;28;99707;-33
2022/05/26 06:44:37;;;;;;;9.70;2.38;;;;;;;17.27;68.73;102081.78;5014777;28;99207;-33
2022/05/26 06:47:03;;;;;;;;;;;;;;;17.16;68.74;102091.63;5015250;28;96588;-33
2022/05/26 06:49:28;;;;;;;4.57;1.58;;;;;;;17.19;69.02;102101.50;4996929;28;96952;-33
2022/05/26 06:51:54;;;;;;;5.85;1.77;;;;;;;17.26;68.44;102085.53;5013714;28;126262;-33
2022/05/26 06:54:19;;;;;;;5.82;1.70;;;;;;;17.36;67.91;102097.56;5015092;28;97839;-33
2022/05/26 06:56:44;;;;;;;16.15;1.92;;;;;;;17.51;67.70;102095.63;5015165;28;96661;-33
2022/05/26 06:59:10;;;;;;;3.42;1.58;;;;;;;17.63;67.38;102097.47;5013895;28;121859;-33
2022/05/26 07:01:35;;;;;;;6.45;1.90;;;;;;;17.88;66.82;102107.59;5012960;28;126545;-33
2022/05/26 07:04:00;;;;;;;5.35;1.83;;;;;;;17.99;66.39;102104.94;5014135;28;97918;-33
2022/05/26 07:06:27;;;;;;;7.25;1.85;;;;;;;18.08;66.72;102097.03;5014157;28;111472;-33
2022/05/26 07:08:53;;;;;;;5.75;1.75;;;;;;;18.21;66.02;102104.25;4996479;28;96811;-33
2022/05/26 07:11:19;;;;;;;8.35;1.83;;;;;;;18.33;65.57;102099.72;4996111;28;101550;-33
2022/05/26 07:13:45;;;;;;;2.53;1.42;;;;;;;18.43;65.04;102103.53;5014210;28;99206;-33
2022/05/26 07:16:11;;;;;;;5.13;1.67;;;;;;;18.33;65.21;102116.19;4996164;28;96664;-33
2022/05/26 07:18:39;;;;;;;4.45;1.52;;;;;;;18.15;66.03;102104.69;4996703;28;96958;-33
2022/05/26 07:21:06;;;;;;;3.28;1.20;;;;;;;18.26;64.37;102112.16;4996078;28;100847;-33
2022/05/26 07:23:34;;;;;;;8.80;2.28;;;;;;;18.34;65.83;102128.91;4995991;28;99460;-33
2022/05/26 07:26:03;;;;;;;6.60;1.63;;;;;;;18.37;65.80;102134.16;5013360;28;97422;-33
2022/05/26 07:28:28;;;;;;;6.15;1.88;;;;;;;18.20;65.86;102123.56;5012750;28;96742;-33
2022/05/26 07:30:53;;;;;;;9.38;1.67;;;;;;;18.29;65.46;102124.75;5012698;28;124623;-33
2022/05/26 07:33:19;;;;;;;8.73;1.67;;;;;;;18.28;64.85;102115.63;5012918;28;128507;-33
2022/05/26 07:35:46;;;;;;;6.05;1.77;;;;;;;18.12;65.97;102115.91;4996088;28;96726;-33
2022/05/26 07:43:40;;;;;;;2.75;1.65;;;;;;;17.77;66.04;102123.91;4996903;28;97012;-33
2022/05/26 07:46:06;;;;;;;8.10;1.80;;;;;;;17.66;66.66;102121.91;5014089;28;96635;-33
2022/05/26 07:48:31;;;;;;;3.15;1.48;;;;;;;18.00;66.12;102131.38;5013799;28;96832;-33
2022/05/26 07:50:57;;;;;;;5.72;2.03;;;;;;;18.14;65.51;102127.63;5012158;28;127959;-33
2022/05/26 07:53:22;;;;;;;6.20;1.75;;;;;;;18.21;65.32;102133.53;5012928;28;127331;-33
2022/05/26 07:55:48;;;;;;;9.80;2.03;;;;;;;18.41;62.42;102146.66;5013604;28;96691;-33
2022/05/26 07:58:13;;;;;;;13.77;1.92;;;;;;;18.64;63.63;102136.72;5013557;28;96798;-33
2022/05/26 08:00:40;;;;;;;5.13;1.30;;;;;;;18.43;63.14;102139.19;5013438;28;109802;-33
2022/05/26 08:03:05;;;;;;;5.45;1.20;;;;;;;18.66;63.56;102131.09;5013123;28;99344;-33
2022/05/26 08:05:31;;;;;;;5.90;1.50;;;;;;;18.98;61.63;102145.16;5013649;28;97223;-33
2022/05/26 08:07:57;;;;;;;5.68;1.40;;;;;;;19.20;62.13;102149.00;4995979;28;96866;-33
2022/05/26 08:10:22;;;;;;;4.63;1.50;;;;;;;19.48;61.94;102148.59;4995417;28;97980;-34
2022/05/26 08:12:47;;;;;;;5.68;1.05;;;;;;;19.48;59.96;102137.63;5012925;28;97606;-33
2022/05/26 08:15:13;;;;;;;6.57;1.30;;;;;;;19.51;60.55;102137.38;5012599;28;113906;-33
2022/05/26 08:17:38;;;;;;;7.10;1.58;;;;;;;19.64;59.81;102144.63;5013152;28;102569;-33
2022/05/26 08:20:05;;;;;;;7.13;1.40;;;;;;;19.60;60.31;102152.25;5013232;28;99249;-33
2022/05/26 08:22:31;;;;;;;8.13;1.20;;;;;;;19.78;60.20;102149.94;4995220;28;102102;-33
2022/05/26 08:24:57;;;;;;;13.27;1.92;;;;;;;19.94;60.81;102158.72;5012987;28;99324;-34
2022/05/26 08:27:24;;;;;;;3.58;1.38;;;;;;;20.10;59.40;102154.75;4995074;28;96967;-33
2022/05/26 08:29:49;;;;;;;6.40;1.08;;;;;;;19.99;60.03;102160.22;4995016;28;101271;-33
2022/05/26 08:32:19;;;;;;;7.43;1.30;;;;;;;19.69;60.10;102150.69;4995440;28;100364;-33
2022/05/26 08:34:44;;;;;;;8.65;1.50;;;;;;;19.59;60.04;102161.47;4995157;28;96617;-33
2022/05/26 08:37:20;;;;;;;4.75;1.25;;;;;;;19.82;59.64;102167.09;5013214;28;96894;-33
2022/05/26 08:39:46;;;;;;;3.47;0.82;;;;;;;19.96;59.34;102164.09;4994339;28;101271;-33
2022/05/26 08:42:19;;;;;;;3.42;1.35;;;;;;;19.99;58.86;102180.34;4994976;28;100709;-33
2022/05/26 08:44:45;;;;;;;3.13;0.98;;;;;;;;;;4995114;28;96612;-34
2022/05/26 08:47:14;;;;;;;6.43;1.58;;;;;;;19.60;60.35;102171.50;5013387;28;96491;-33
2022/05/26 08:49:43;;;;;;;4.38;1.30;;;;;;;19.41;60.20;102174.81;4994755;28;100714;-33
2022/05/26 08:52:19;;;;;;;6.55;1.70;;;;;;;19.36;60.87;102193.53;4994165;28;101376;-34
2022/05/26 08:54:53;;;;;;;4.88;1.30;;;;;;;19.22;60.41;102177.25;4994998;28;96657;-34
2022/05/26 08:57:25;;;;;;;6.80;1.45;;;;;;;19.04;60.63;102187.75;4995062;28;96946;-33
2022/05/26 08:59:51;;;;;;;2.90;1.23;;;;;;;19.20;61.10;102192.97;4994683;28;100962;-33
2022/05/26 09:02:35;;;;;;;10.70;1.35;;;;;;;19.25;60.08;102194.34;5012517;28;99425;-33
2022/05/26 09:05:13;;;;;;;4.07;1.38;;;;;;;18.98;60.52;102193.72;5008555;28;97740;-33
2022/05/26 09:13:27;;;;;;;2.55;0.68;;;;;;;18.68;60.04;102204.09;5010540;28;97014;-33
2022/05/26 09:15:52;;;;;;;4.35;1.88;;;;;;;18.70;60.19;102214.97;5012077;28;96755;-33
2022/05/26 09:18:21;;;;;;;3.22;1.25;;;;;;;18.71;60.84;102207.59;5011531;28;96908;-32
2022/05/26 09:20:49;;;;;;;2.63;1.10;;;;;;;18.60;61.25;102206.53;5027549;28;99971;-33
2022/05/26 09:23:27;;;;;;;7.20;1.20;;;;;;;18.57;61.51;102214.16;4994504;28;99739;-34
2022/05/26 09:26:01;;;;;;;5.28;1.55;;;;;;;18.51;61.13;102220.06;5010674;28;96799;-33
2022/05/26 09:28:48;;;;;;;7.97;1.17;;;;;;;18.53;60.60;102226.31;5012712;28;96527;-33
2022/05/26 09:31:36;;;;;;;3.25;0.88;;;;;;;18.59;58.25;102225.84;4991681;28;99489;-33
2022/05/26 09:34:16;;;;;;;4.47;1.02;;;;;;;18.54;60.15;102226.19;4974441;28;101136;-33
2022/05/26 09:36:55;;;;;;;4.00;1.00;;;;;;;18.69;59.40;102226.97;4974414;28;96634;-33
2022/05/26 09:39:30;;;;;;;9.25;1.30;;;;;;;18.86;60.73;102242.22;4992197;28;96697;-33
2022/05/26 09:41:57;;;;;;;5.82;1.63;;;;;;;19.04;59.64;102226.19;5013057;28;100840;-34
2022/05/26 09:44:53;;;;;;;3.65;0.90;;;;;;;19.48;59.03;102228.31;5010632;28;101154;-33
2022/05/26 09:47:37;;;;;;;3.72;0.93;;;;;;;19.48;58.42;102228.31;5012096;28;96603;-33
2022/05/26 09:50:06;;;;;;;2.08;0.77;;;;;;;19.50;58.03;102234.56;5027963;28;96711;-33
2022/05/26 09:52:42;;;;;;;7.82;1.13;;;;;;;19.48;57.76;102233.81;4993006;28;102481;-33
2022/05/26 09:55:12;;;;;;;3.53;1.08;;;;;;;19.46;58.82;102237.66;5011099;28;99362;-32
2022/05/26 09:57:37;;;;;;;7.13;1.30;;;;;;;19.42;58.35;102236.16;5011299;28;96518;-33
2022/05/26 10:00:14;;;;;;;5.25;0.90;;;;;;;19.29;58.03;102226.09;5011714;28;97612;-33
2022/05/26 10:02:40;;;;;;;8.35;1.60;;;;;;;19.21;58.84;102225.81;5010433;28;101154;-33
2022/05/26 10:05:22;;;;;;;5.80;1.30;;;;;;;19.11;57.17;102235.72;5013828;28;97259;-33
2022/05/26 10:07:58;;;;;;;8.07;1.58;;;;;;;19.08;59.22;102239.59;4997343;28;96640;-33
2022/05/26 10:10:34;;;;;;;8.25;1.65;;;;;;;19.25;59.36;102240.19;4997414;28;96737;-33
2022/05/26 10:13:08;;;;;;;5.15;0.93;;;;;;;19.73;58.00;102253.91;4996962;28;100705;-33
2022/05/26 10:15:54;;;;;;;4.60;1.20;;;;;;;20.26;56.48;102265.31;5014194;28;100652;-34
2022/05/26 10:18:29;;;;;;;5.97;1.48;;;;;;;20.53;55.83;102266.84;4997285;28;96682;-33
2022/05/26 10:21:34;;;;;;;5.28;1.48;;;;;;;20.69;55.75;102283.91;5013936;28;96746;-33
2022/05/26 10:24:31;;;;;;;18.27;2.38;;;;;;;20.94;53.33;102248.81;5014768;28;98065;-33
2022/05/26 10:27:04;;;;;;;3.83;1.13;;;;;;;21.00;54.85;102257.44;5030278;28;101072;-33
2022/05/26 10:30:00;;;;;;;4.65;1.40;;;;;;;20.78;52.45;102251.94;5015743;28;96616;-33
2022/05/26 10:32:46;;;;;;;7.40;1.25;;;;;;;20.87;53.78;102242.06;5015074;28;96672;-33
2022/05/26 10:35:25;;;;;;;5.47;1.15;;;;;;;20.76;54.10;102241.09;4996729;28;100855;-33
2022/05/26 10:38:22;;;;;;;9.93;1.33;;;;;;;20.88;53.57;102246.56;4996740;28;99028;-33
2022/05/26 10:41:05;;;;;;;6.82;1.05;;;;;;;21.08;54.55;102234.75;4997005;28;96557;-33
2022/05/26 10:43:51;;;;;;;4.45;1.00;;;;;;;21.21;54.13;102240.09;5015359;28;96642;-34
2022/05/26 10:46:19;;;;;;;5.93;1.02;;;;;;;21.04;54.58;102251.66;4996849;28;100850;-33
2022/05/26 10:49:08;;;;;;;2.80;1.10;;;;;;;20.72;53.38;102252.47;4996391;28;101009;-34
2022/05/26 10:51:42;;;;;;;4.80;1.33;;;;;;;20.45;54.52;102255.56;5014580;28;96630;-33
2022/05/26 10:54:36;;;;;;;4.85;1.05;;;;;;;20.66;54.91;102242.81;4996866;28;96937;-33
2022/05/26 10:57:27;;;;;;;7.45;1.40;;;;;;;20.76;52.67;102246.59;4996443;28;100894;-34
2022/05/26 11:00:04;;;;;;;4.00;1.10;;;;;;;20.83;52.62;102238.66;4996640;28;100682;-33
2022/05/26 11:02:58;;;;;;;8.07;1.23;;;;;;;20.96;54.15;102239.41;5014877;28;96616;-33
2022/05/26 11:05:32;;;;;;;7.05;1.08;;;;;;;20.77;53.72;102242.81;4996376;28;96715;-34
2022/05/26 11:08:13;;;;;;;3.70;0.80;;;;;;;20.71;52.80;102232.34;5014188;28;110324;-33
2022/05/26 11:10:47;;;;;;;1.70;0.80;;;;;;;20.72;52.28;102234.06;5014724;28;98815;-34
2022/05/26 11:13:22;;;;;;;3.42;0.77;;;;;;;20.56;53.87;102223.44;5013206;28;96507;-34
2022/05/26 11:18:51;;;;;;;6.65;1.45;;;;;;;20.25;54.69;102230.53;5013636;28;97120;-34
2022/05/26 11:21:22;;;;;;;2.55;0.93;;;;;;;20.15;54.54;102216.63;4996063;28;100948;-34
2022/05/26 11:23:48;;;;;;;5.60;1.00;;;;;;;20.31;54.65;102221.78;5011795;28;97118;-34
2022/05/26 11:26:31;;;;;;;6.38;1.13;;;;;;;20.40;54.29;102224.78;5011906;28;96890;-34
2022/05/26 11:29:01;;;;;;;2.97;0.80;;;;;;;20.33;53.97;102228.06;5011185;28;100863;-34
2022/05/26 11:37:28;;;;;;;2.33;0.85;;;;;;;20.64;52.53;102214.56;5014423;28;97314;-32
2022/05/26 11:40:00;;;;;;;1.85;0.43;;;;;;;20.59;53.27;102227.81;4995950;28;101357;-34
2022/05/26 11:42:47;;;;;;;3.03;0.55;;;;;;;20.66;51.64;102229.06;5012112;28;101036;-33
2022/05/26 11:45:23;;;;;;;3.05;1.08;;;;;;;20.79;53.17;102238.06;5013143;28;96672;-34
2022/05/26 11:48:02;;;;;;;8.55;1.13;;;;;;;20.63;52.72;102245.84;4995941;28;96734;-34
2022/05/26 11:50:50;;;;;;;4.38;0.88;;;;;;;20.50;53.60;102250.59;5013089;28;99164;-34
2022/05/26 11:53:27;;;;;;;2.83;0.55;;;;;;;20.35;53.14;102255.44;5013658;28;98680;-33
2022/05/26 11:56:03;;;;;;;1.73;0.70;;;;;;;20.25;53.53;102258.03;5013111;28;97910;-33
2022/05/26 11:58:31;;;;;;;3.38;0.90;;;;;;;20.45;54.30;102255.56;5013532;28;96609;-34
2022/05/26 12:01:15;;;;;;;6.38;0.93;;;;;;;20.53;53.46;102247.56;4995513;28;101419;-34
2022/05/26 12:04:00;;;;;;;5.43;1.00;;;;;;;20.33;53.90;102252.81;5013215;28;99320;-34
2022/05/26 12:06:36;;;;;;;5.25;1.08;;;;;;;20.17;53.12;102249.53;5012280;28;96604;-34
2022/05/26 12:09:10;;;;;;;4.40;0.88;;;;;;;20.21;54.37;102251.03;5012359;28;96732;-34
2022/05/26 12:12:08;;;;;;;6.13;1.20;;;;;;;20.25;54.67;102255.28;4994734;28;101398;-34
2022/05/26 12:14:44;;;;;;;3.83;0.90;;;;;;;20.36;53.79;102251.69;5013194;28;99253;-34
2022/05/26 12:17:28;;;;;;;2.40;0.63;;;;;;;20.47;53.73;102257.19;4995373;28;96601;-34